Time;durP1;ratioP1;P1;durP2;ratioP2;P2;SDS_P1;SDS_P2;PMS_P1;PMS_P2;Temp;Humidity;BMP_temperature;BMP_pressure;BME280_temperature;BME280_humidity;BME280_pressure;Samples;Min_cycle;Max_cycle;Signal;HPM_P1;HPM_P2
2022/06/29 00:03:52;;;;;;;25.90;18.27;;;;;;;;;;8391720;28;20044;-89
2022/06/29 00:07:57;;;;;;;25.73;17.10;;;;;;;;;;8373981;28;20120;-92
2022/06/29 00:12:00;;;;;;;25.42;17.95;;;;;;;;;;8368676;28;20485;-92
2022/06/29 00:16:03;;;;;;;29.65;20.00;;;;;;;;;;8384861;28;20097;-92
2022/06/29 00:20:07;;;;;;;28.75;18.55;;;;;;;;;;8384914;28;20047;-93
2022/06/29 00:24:12;;;;;;;27.10;19.52;;;;;;;;;;8388021;28;20449;-92
2022/06/29 00:28:15;;;;;;;30.08;20.90;;;;;;;;;;8381336;28;20040;-91
2022/06/29 00:32:18;;;;;;;32.33;21.73;;;;;;;;;;8384164;28;20045;-92
2022/06/29 00:36:21;;;;;;;34.85;22.95;;;;;;;;;;8389976;28;20053;-92
2022/06/29 00:40:26;;;;;;;41.03;26.02;;;;;;;;;;8386059;28;20470;-92
2022/06/29 00:44:28;;;;;;;43.65;26.75;;;;;;;;;;8395643;28;20404;-92
2022/06/29 00:48:31;;;;;;;48.60;26.77;;;;;;;;;;8396889;28;20093;-93
2022/06/29 00:52:37;;;;;;;47.03;26.88;;;;;;;;;;8384596;28;20053;-90
2022/06/29 00:56:43;;;;;;;45.90;26.65;;;;;;;;;;8390432;28;20044;-91
2022/06/29 01:00:46;;;;;;;45.28;24.08;;;;;;;;;;8389199;28;20040;-92
2022/06/29 01:04:50;;;;;;;51.22;27.10;;;;;;;;;;8376196;28;20140;-91
2022/06/29 01:08:53;;;;;;;50.20;28.00;;;;;;;;;;8373169;28;20546;-90
2022/06/29 01:12:57;;;;;;;48.97;25.30;;;;;;;;;;8387944;28;20123;-91
2022/06/29 01:17:00;;;;;;;51.42;27.17;;;;;;;;;;8373561;28;20493;-91
2022/06/29 01:21:05;;;;;;;48.00;25.98;;;;;;;;;;8377547;28;20476;-89
2022/06/29 01:25:10;;;;;;;53.05;25.80;;;;;;;;;;8374576;28;20411;-89
2022/06/29 01:29:13;;;;;;;47.58;25.63;;;;;;;;;;8371725;28;20524;-91
2022/06/29 01:33:16;;;;;;;58.80;27.52;;;;;;;;;;8374937;28;20063;-89
2022/06/29 01:37:18;;;;;;;51.35;26.17;;;;;;;;;;8368021;28;20132;-90
2022/06/29 01:41:23;;;;;;;48.42;25.23;;;;;;;;;;8371364;28;20067;-90
2022/06/29 01:45:26;;;;;;;51.45;27.52;;;;;;;;;;8383885;28;20111;-90
2022/06/29 01:49:29;;;;;;;42.10;23.63;;;;;;;;;;8374508;28;20124;-91
2022/06/29 01:53:31;;;;;;;47.08;26.00;;;;;;;;;;8382248;28;20132;-90
2022/06/29 01:57:35;;;;;;;51.75;26.27;;;;;;;;;;8371659;28;20071;-89
2022/06/29 02:01:39;;;;;;;47.10;27.30;;;;;;;;;;8365051;28;20233;-90
2022/06/29 02:05:41;;;;;;;44.85;26.58;;;;;;;;;;8380004;28;20037;-91
2022/06/29 02:09:44;;;;;;;43.30;26.90;;;;;;;;;;8374420;28;20077;-89
2022/06/29 02:13:48;;;;;;;44.50;27.15;;;;;;;;;;8377916;28;20068;-89
2022/06/29 02:17:51;;;;;;;46.17;26.73;;;;;;;;;;8367687;28;20037;-91
2022/06/29 02:21:54;;;;;;;46.15;26.42;;;;;;;;;;8365435;28;20416;-89
2022/06/29 02:25:57;;;;;;;44.95;26.42;;;;;;;;;;8372820;28;20094;-90
2022/06/29 02:30:01;;;;;;;46.25;26.60;;;;;;;;;;8377561;28;20098;-91
2022/06/29 02:38:24;;;;;;;53.53;29.38;;;;;;;;;;8373742;28;20123;-89
2022/06/29 02:42:27;;;;;;;42.00;26.25;;;;;;;;;;8373537;28;20642;-89
2022/06/29 02:46:31;;;;;;;51.75;28.58;;;;;;;;;;8369864;28;20049;-88
2022/06/29 02:50:34;;;;;;;52.28;29.58;;;;;;;;;;8375803;28;20052;-91
2022/06/29 02:54:36;;;;;;;59.40;30.95;;;;;;;;;;8363783;28;20045;-92
2022/06/29 02:58:39;;;;;;;56.70;30.15;;;;;;;;;;8384381;28;20056;-91
2022/06/29 03:02:43;;;;;;;59.28;30.92;;;;;;;;;;8375329;28;20048;-90
2022/06/29 03:06:46;;;;;;;63.53;31.25;;;;;;;;;;8379179;28;20090;-89
2022/06/29 03:10:49;;;;;;;62.28;31.02;;;;;;;;;;8370325;28;20037;-91
2022/06/29 03:14:52;;;;;;;60.42;30.98;;;;;;;;;;8365370;28;20079;-90
2022/06/29 03:18:56;;;;;;;63.58;31.92;;;;;;;;;;8376114;28;20399;-89
2022/06/29 03:22:58;;;;;;;59.13;30.83;;;;;;;;;;8373790;28;20551;-91
2022/06/29 03:27:01;;;;;;;58.78;29.88;;;;;;;;;;8371605;28;20408;-89
2022/06/29 03:31:04;;;;;;;48.70;29.23;;;;;;;;;;8373334;28;20045;-90
2022/06/29 03:35:09;;;;;;;44.85;27.52;;;;;;;;;;8390817;28;20445;-89
2022/06/29 03:39:12;;;;;;;44.00;27.50;;;;;;;;;;8372361;28;20052;-90
2022/06/29 03:43:14;;;;;;;41.45;26.15;;;;;;;;;;8374367;28;20099;-91
2022/06/29 03:47:17;;;;;;;39.70;24.30;;;;;;;;;;8370408;28;20041;-92
2022/06/29 03:51:21;;;;;;;35.17;23.48;;;;;;;;;;8374854;28;20103;-91
2022/06/29 03:55:24;;;;;;;37.80;24.63;;;;;;;;;;8382827;28;20237;-90
2022/06/29 03:59:26;;;;;;;36.45;24.33;;;;;;;;;;8377476;28;20049;-88
2022/06/29 04:03:29;;;;;;;38.45;25.70;;;;;;;;;;8373820;28;20052;-88
2022/06/29 04:07:33;;;;;;;35.00;23.35;;;;;;;;;;8372822;28;20045;-89
2022/06/29 04:11:53;;;;;;;35.47;23.38;;;;;;;;;;8368404;28;20041;-89
2022/06/29 04:15:56;;;;;;;32.67;22.08;;;;;;;;;;8383662;28;20112;-90
2022/06/29 04:19:59;;;;;;;32.05;21.30;;;;;;;;;;8377412;28;20041;-89
2022/06/29 04:24:03;;;;;;;31.13;22.17;;;;;;;;;;8375557;28;20147;-91
2022/06/29 04:28:06;;;;;;;32.47;22.55;;;;;;;;;;8373901;28;20076;-90
2022/06/29 04:32:10;;;;;;;33.47;22.45;;;;;;;;;;8376211;28;20052;-90
2022/06/29 04:36:13;;;;;;;31.40;22.60;;;;;;;;;;8377907;28;20496;-89
2022/06/29 04:40:17;;;;;;;30.10;20.70;;;;;;;;;;8370738;28;20041;-90
2022/06/29 04:44:20;;;;;;;26.48;20.65;;;;;;;;;;8376439;28;20040;-89
2022/06/29 04:48:23;;;;;;;30.10;21.60;;;;;;;;;;8382702;28;20050;-89
2022/06/29 04:52:25;;;;;;;27.58;19.60;;;;;;;;;;8378286;28;20037;-90
2022/06/29 04:56:31;;;;;;;25.33;19.52;;;;;;;;;;8382693;28;20480;-90
2022/06/29 05:00:34;;;;;;;22.83;17.50;;;;;;;;;;8380569;28;20049;-90
2022/06/29 05:04:36;;;;;;;28.42;18.50;;;;;;;;;;8391697;28;20045;-90
2022/06/29 05:08:39;;;;;;;25.70;20.05;;;;;;;;;;8382182;28;20049;-90
2022/06/29 05:12:43;;;;;;;26.42;19.02;;;;;;;;;;8372995;28;20451;-88
2022/06/29 05:16:46;;;;;;;23.00;17.58;;;;;;;;;;8376809;28;20114;-90
2022/06/29 05:20:49;;;;;;;24.60;18.63;;;;;;;;;;8380034;28;20079;-90
2022/06/29 05:24:52;;;;;;;23.25;18.73;;;;;;;;;;8373911;28;20052;-91
2022/06/29 05:28:57;;;;;;;24.00;19.10;;;;;;;;;;8370829;28;20051;-89
2022/06/29 05:33:00;;;;;;;23.58;17.90;;;;;;;;;;8382123;28;20064;-90
2022/06/29 05:37:05;;;;;;;22.95;17.48;;;;;;;;;;8355124;28;20397;-92
2022/06/29 05:41:11;;;;;;;23.45;17.17;;;;;;;;;;8376142;28;20143;-91
2022/06/29 05:45:22;;;;;;;25.98;18.70;;;;;;;;;;8383899;28;20428;-91
2022/06/29 05:49:31;;;;;;;24.70;17.92;;;;;;;;;;8381647;28;20052;-90
2022/06/29 05:53:38;;;;;;;21.00;16.45;;;;;;;;;;8378271;28;20075;-90
2022/06/29 05:57:53;;;;;;;23.23;16.70;;;;;;;;;;8375185;28;20051;-92
2022/06/29 06:02:04;;;;;;;23.33;17.45;;;;;;;;;;8376721;28;20045;-91
2022/06/29 06:06:12;;;;;;;25.85;18.40;;;;;;;;;;8376534;28;20068;-92
2022/06/29 06:10:21;;;;;;;22.15;17.27;;;;;;;;;;8381967;28;20053;-93
2022/06/29 06:14:37;;;;;;;21.88;17.08;;;;;;;;;;8368837;28;20041;-92
2022/06/29 06:18:50;;;;;;;21.80;17.10;;;;;;;;;;8367942;28;20044;-90
2022/06/29 06:22:56;;;;;;;22.67;17.23;;;;;;;;;;8377888;28;20505;-90
2022/06/29 06:27:03;;;;;;;20.85;16.80;;;;;;;;;;8371840;28;20118;-90
2022/06/29 06:31:11;;;;;;;21.92;17.35;;;;;;;;;;8372280;28;20139;-89
2022/06/29 06:35:19;;;;;;;22.20;16.55;;;;;;;;;;8392075;28;20052;-90
2022/06/29 06:39:29;;;;;;;22.35;15.27;;;;;;;;;;8374679;28;20458;-90
2022/06/29 06:43:37;;;;;;;18.63;15.23;;;;;;;;;;8378376;28;20042;-89
2022/06/29 06:47:49;;;;;;;22.75;16.52;;;;;;;;;;8378029;28;20045;-89
2022/06/29 06:51:58;;;;;;;26.90;16.38;;;;;;;;;;8369889;28;20041;-90
2022/06/29 06:56:07;;;;;;;22.20;16.60;;;;;;;;;;8374879;28;20040;-89
2022/06/29 07:00:15;;;;;;;21.15;16.00;;;;;;;;;;8369979;28;20029;-90
2022/06/29 07:04:22;;;;;;;19.20;16.35;;;;;;;;;;8377466;28;20056;-90
2022/06/29 07:08:37;;;;;;;23.73;18.30;;;;;;;;;;8380149;28;20048;-89
2022/06/29 07:12:47;;;;;;;21.08;16.45;;;;;;;;;;8383231;28;20040;-89
2022/06/29 07:21:47;;;;;;;20.63;16.60;;;;;;;;;;8383058;28;20427;-89
2022/06/29 07:26:01;;;;;;;22.25;16.60;;;;;;;;;;8373653;28;20408;-88
2022/06/29 07:30:09;;;;;;;20.67;16.35;;;;;;;;;;8374451;28;20043;-89
2022/06/29 07:34:14;;;;;;;24.13;17.38;;;;;;;;;;8376660;28;20056;-89
2022/06/29 07:38:19;;;;;;;23.00;15.95;;;;;;;;;;8362694;28;20508;-91
2022/06/29 07:42:32;;;;;;;20.20;15.68;;;;;;;;;;8362279;28;20055;-88
2022/06/29 07:46:39;;;;;;;19.77;16.00;;;;;;;;;;8368327;28;20056;-89
2022/06/29 07:50:47;;;;;;;19.23;15.82;;;;;;;;;;8363848;28;20048;-89
2022/06/29 07:55:02;;;;;;;18.73;14.90;;;;;;;;;;8374728;28;20048;-90
2022/06/29 07:59:20;;;;;;;20.63;14.52;;;;;;;;;;8369205;28;20040;-90
2022/06/29 08:03:25;;;;;;;17.02;14.48;;;;;;;;;;8373824;28;20131;-89
2022/06/29 08:07:35;;;;;;;16.08;13.18;;;;;;;;;;8385244;28;20053;-91
2022/06/29 08:11:42;;;;;;;16.85;13.05;;;;;;;;;;8379944;28;20083;-91
2022/06/29 08:15:59;;;;;;;16.17;13.10;;;;;;;;;;8384139;28;20532;-91
2022/06/29 08:20:19;;;;;;;16.70;13.65;;;;;;;;;;8364905;28;20075;-91
2022/06/29 08:24:33;;;;;;;16.83;13.65;;;;;;;;;;8368913;28;20153;-90
2022/06/29 08:29:06;;;;;;;14.80;12.90;;;;;;;;;;8373515;28;20389;-90
2022/06/29 08:33:21;;;;;;;15.32;13.65;;;;;;;;;;8387219;28;20459;-90
2022/06/29 08:37:29;;;;;;;15.65;13.00;;;;;;;;;;8388165;28;20040;-89
2022/06/29 08:41:34;;;;;;;16.75;14.20;;;;;;;;;;8381924;28;20436;-90
2022/06/29 08:45:38;;;;;;;15.50;13.45;;;;;;;;;;8389579;28;20052;-90
2022/06/29 08:49:44;;;;;;;14.55;12.20;;;;;;;;;;8392966;28;20051;-89
2022/06/29 08:53:50;;;;;;;16.58;13.82;;;;;;;;;;8385245;28;20058;-90
2022/06/29 08:57:53;;;;;;;18.10;13.68;;;;;;;;;;8388747;28;20152;-91
2022/06/29 09:01:58;;;;;;;16.25;13.40;;;;;;;;;;8383935;28;20106;-90
2022/06/29 09:06:06;;;;;;;14.95;12.90;;;;;;;;;;8369231;28;20087;-90
2022/06/29 09:10:14;;;;;;;16.42;13.60;;;;;;;;;;8374379;28;20044;-92
2022/06/29 09:14:19;;;;;;;17.27;14.23;;;;;;;;;;8365322;28;20051;-89
2022/06/29 09:18:27;;;;;;;20.13;14.82;;;;;;;;;;8382669;28;20045;-90
2022/06/29 09:22:33;;;;;;;16.17;13.40;;;;;;;;;;8368921;28;20048;-90
2022/06/29 09:26:38;;;;;;;15.35;13.05;;;;;;;;;;8384643;28;20048;-91
2022/06/29 09:30:41;;;;;;;17.98;13.18;;;;;;;;;;8384612;28;20044;-89
2022/06/29 09:34:49;;;;;;;16.83;13.10;;;;;;;;;;8381846;28;20056;-90
2022/06/29 09:38:54;;;;;;;17.63;14.65;;;;;;;;;;8384180;28;20597;-90
2022/06/29 09:42:57;;;;;;;16.83;13.73;;;;;;;;;;8359917;28;20040;-91
2022/06/29 09:47:15;;;;;;;18.70;14.18;;;;;;;;;;8372027;28;20041;-91
2022/06/29 09:51:38;;;;;;;19.27;14.70;;;;;;;;;;8381402;28;20048;-90
2022/06/29 09:56:24;;;;;;;16.67;14.07;;;;;;;;;;8377191;28;20630;-90
2022/06/29 10:05:08;;;;;;;18.92;13.90;;;;;;;;;;8366672;28;20477;-90
2022/06/29 10:09:17;;;;;;;16.27;14.23;;;;;;;;;;8353351;28;20098;-91
2022/06/29 10:13:42;;;;;;;16.95;13.80;;;;;;;;;;8380520;28;20044;-91
2022/06/29 10:17:57;;;;;;;19.05;14.93;;;;;;;;;;8372321;28;20098;-90
2022/06/29 10:22:07;;;;;;;18.58;15.30;;;;;;;;;;8372503;28;20053;-89
2022/06/29 10:26:58;;;;;;;17.00;14.77;;;;;;;;;;8381114;28;20477;-88
2022/06/29 10:31:46;;;;;;;15.60;13.73;;;;;;;;;;8380176;28;20037;-90
2022/06/29 10:36:09;;;;;;;17.25;14.88;;;;;;;;;;8378179;28;20144;-89
2022/06/29 10:40:19;;;;;;;17.33;14.13;;;;;;;;;;8387707;28;20558;-90
2022/06/29 10:45:01;;;;;;;18.70;14.43;;;;;;;;;;8371210;28;20064;-90
2022/06/29 10:49:24;;;;;;;16.73;14.13;;;;;;;;;;8380712;28;20053;-87
2022/06/29 10:53:27;;;;;;;17.75;14.77;;;;;;;;;;8384069;28;20478;-90
2022/06/29 10:57:37;;;;;;;15.85;14.15;;;;;;;;;;8377416;28;20145;-88
2022/06/29 11:01:41;;;;;;;16.27;14.07;;;;;;;;;;8342092;28;20048;-89
2022/06/29 11:18:57;;;;;;;16.45;13.73;;;;;;;;;;8356974;28;20067;-89
2022/06/29 11:23:12;;;;;;;16.80;12.80;;;;;;;;;;8373105;28;20053;-91
2022/06/29 11:27:35;;;;;;;14.90;11.98;;;;;;;;;;8392238;28;20045;-89
2022/06/29 11:32:14;;;;;;;19.15;13.52;;;;;;;;;;8378849;28;20098;-89
2022/06/29 11:36:25;;;;;;;16.65;12.52;;;;;;;;;;8376479;28;20087;-90
2022/06/29 11:40:41;;;;;;;17.98;12.52;;;;;;;;;;8370600;28;20061;-90
2022/06/29 11:45:07;;;;;;;14.30;12.57;;;;;;;;;;8388545;28;20045;-88
2022/06/29 11:49:39;;;;;;;15.20;12.45;;;;;;;;;;8380010;28;20044;-90
2022/06/29 11:58:49;;;;;;;15.00;12.43;;;;;;;;;;8377151;28;20041;-87
2022/06/29 12:03:06;;;;;;;16.55;12.10;;;;;;;;;;8386250;28;20072;-88
2022/06/29 12:07:16;;;;;;;17.10;12.23;;;;;;;;;;8374087;28;20123;-88
2022/06/29 12:11:31;;;;;;;13.18;11.70;;;;;;;;;;8382480;28;20037;-86
2022/06/29 12:15:44;;;;;;;15.52;11.98;;;;;;;;;;8381260;28;20370;-88
2022/06/29 12:19:53;;;;;;;13.35;11.88;;;;;;;;;;8379433;28;20056;-87
2022/06/29 12:24:05;;;;;;;13.75;11.75;;;;;;;;;;8386059;28;20480;-88
2022/06/29 12:28:21;;;;;;;15.75;11.80;;;;;;;;;;8368593;28;20568;-88
2022/06/29 12:32:35;;;;;;;13.82;11.35;;;;;;;;;;8383692;28;20037;-87
2022/06/29 12:36:53;;;;;;;12.60;11.07;;;;;;;;;;8376804;28;20053;-90
2022/06/29 12:41:15;;;;;;;14.65;11.05;;;;;;;;;;8395825;28;20385;-86
2022/06/29 12:45:40;;;;;;;12.55;10.65;;;;;;;;;;8375863;28;20634;-88
2022/06/29 12:50:00;;;;;;;13.60;11.80;;;;;;;;;;8386909;28;20036;-89
2022/06/29 12:59:05;;;;;;;12.45;10.55;;;;;;;;;;8382755;28;20086;-88
2022/06/29 13:03:21;;;;;;;12.43;10.30;;;;;;;;;;8382476;28;20068;-88
2022/06/29 13:07:32;;;;;;;12.85;11.27;;;;;;;;;;8379511;28;20037;-89
2022/06/29 13:11:41;;;;;;;12.82;11.20;;;;;;;;;;8384636;28;20045;-90
2022/06/29 13:15:48;;;;;;;14.52;11.18;;;;;;;;;;8375649;28;20171;-89
2022/06/29 13:19:59;;;;;;;11.43;10.02;;;;;;;;;;8382088;28;20059;-89
2022/06/29 13:24:23;;;;;;;12.52;10.52;;;;;;;;;;8372074;28;20144;-89
2022/06/29 13:28:43;;;;;;;12.35;10.85;;;;;;;;;;8372177;28;20051;-90
2022/06/29 13:32:50;;;;;;;11.95;10.57;;;;;;;;;;8388515;28;20048;-89
2022/06/29 13:37:04;;;;;;;11.85;10.20;;;;;;;;;;8379345;28;20064;-88
2022/06/29 13:41:19;;;;;;;11.98;10.48;;;;;;;;;;8387049;28;20047;-91
2022/06/29 13:45:33;;;;;;;12.45;10.25;;;;;;;;;;8383541;28;20072;-87
2022/06/29 13:49:37;;;;;;;12.90;10.88;;;;;;;;;;8370472;28;20059;-89
2022/06/29 13:53:40;;;;;;;14.63;10.63;;;;;;;;;;8375359;28;20382;-89
2022/06/29 13:57:45;;;;;;;12.40;10.48;;;;;;;;;;8368001;28;20131;-88
2022/06/29 14:01:49;;;;;;;13.07;11.63;;;;;;;;;;8366191;28;20052;-88
2022/06/29 14:05:53;;;;;;;12.48;10.88;;;;;;;;;;8370700;28;20051;-88
2022/06/29 14:09:56;;;;;;;15.85;12.07;;;;;;;;;;8379133;28;20071;-86
2022/06/29 14:14:06;;;;;;;14.70;11.77;;;;;;;;;;8374576;28;20052;-89
2022/06/29 14:18:17;;;;;;;13.77;11.73;;;;;;;;;;8359632;28;20048;-90
2022/06/29 14:27:50;;;;;;;14.15;11.57;;;;;;;;;;8377303;28;20451;-90
2022/06/29 14:32:16;;;;;;;12.93;11.18;;;;;;;;;;8369314;28;20124;-88
2022/06/29 14:36:30;;;;;;;13.25;11.50;;;;;;;;;;8367313;28;20110;-88
2022/06/29 14:40:41;;;;;;;15.55;11.40;;;;;;;;;;8373886;28;20045;-87
2022/06/29 14:44:48;;;;;;;14.20;10.82;;;;;;;;;;8376639;28;20086;-91
2022/06/29 14:49:18;;;;;;;14.05;10.95;;;;;;;;;;8374205;28;20040;-89
2022/06/29 14:53:32;;;;;;;12.05;10.85;;;;;;;;;;8375325;28;20048;-87
2022/06/29 14:57:53;;;;;;;11.63;10.43;;;;;;;;;;8371968;28;20396;-91
2022/06/29 15:02:13;;;;;;;13.05;10.60;;;;;;;;;;8376704;28;20373;-90
2022/06/29 15:06:41;;;;;;;12.88;10.73;;;;;;;;;;8381837;28;20461;-90
2022/06/29 15:10:47;;;;;;;12.60;11.00;;;;;;;;;;8375981;28;20138;-90
2022/06/29 15:15:03;;;;;;;12.18;10.88;;;;;;;;;;8375267;28;20066;-89
2022/06/29 15:19:09;;;;;;;11.93;10.73;;;;;;;;;;8390275;28;20040;-90
2022/06/29 15:23:14;;;;;;;12.73;10.70;;;;;;;;;;8391888;28;20041;-89
2022/06/29 15:27:17;;;;;;;13.18;11.82;;;;;;;;;;8378248;28;20051;-90
2022/06/29 15:31:21;;;;;;;11.77;10.35;;;;;;;;;;8386862;28;20059;-89
2022/06/29 15:39:56;;;;;;;13.40;11.05;;;;;;;;;;8397853;28;20377;-89
2022/06/29 15:44:08;;;;;;;14.45;11.40;;;;;;;;;;8393641;28;20036;-90
2022/06/29 15:48:12;;;;;;;13.55;11.35;;;;;;;;;;8396797;28;20063;-90
2022/06/29 15:52:20;;;;;;;13.38;11.13;;;;;;;;;;8397942;28;20446;-88
2022/06/29 15:56:30;;;;;;;14.43;11.27;;;;;;;;;;8394696;28;20115;-90
2022/06/29 16:00:34;;;;;;;13.10;11.38;;;;;;;;;;8380780;28;20176;-87
2022/06/29 16:04:40;;;;;;;12.18;10.88;;;;;;;;;;8381304;28;20538;-89
2022/06/29 16:08:46;;;;;;;13.57;11.10;;;;;;;;;;8393379;28;20250;-90
2022/06/29 16:12:54;;;;;;;14.65;11.02;;;;;;;;;;8396188;28;20064;-88
2022/06/29 16:16:59;;;;;;;15.25;11.65;;;;;;;;;;8396938;28;20041;-90
2022/06/29 16:21:03;;;;;;;12.70;11.18;;;;;;;;;;8394301;28;20036;-90
2022/06/29 16:25:08;;;;;;;13.10;11.60;;;;;;;;;;8396744;28;20045;-87
2022/06/29 16:29:15;;;;;;;12.65;11.25;;;;;;;;;;8378756;28;20555;-91
2022/06/29 16:33:20;;;;;;;15.23;11.48;;;;;;;;;;8390536;28;20132;-87
2022/06/29 16:37:24;;;;;;;13.38;12.07;;;;;;;;;;8394160;28;20134;-90
2022/06/29 16:41:29;;;;;;;14.88;12.57;;;;;;;;;;8375212;28;20103;-88
2022/06/29 16:45:34;;;;;;;13.23;11.38;;;;;;;;;;8384088;28;20048;-87
2022/06/29 16:49:37;;;;;;;14.02;12.25;;;;;;;;;;8383620;28;20044;-91
2022/06/29 16:53:42;;;;;;;13.85;12.48;;;;;;;;;;8390637;28;20041;-90
2022/06/29 16:57:45;;;;;;;16.33;12.52;;;;;;;;;;8393263;28;20119;-91
2022/06/29 17:01:51;;;;;;;14.45;12.68;;;;;;;;;;8389967;28;20098;-90
2022/06/29 17:05:54;;;;;;;14.88;12.55;;;;;;;;;;8346256;28;20209;-90
2022/06/29 17:10:00;;;;;;;15.05;13.30;;;;;;;;;;8371985;28;20095;-91
2022/06/29 17:14:08;;;;;;;13.82;12.43;;;;;;;;;;8374972;28;20481;-91
2022/06/29 17:18:15;;;;;;;15.00;13.10;;;;;;;;;;8369461;28;20041;-88
2022/06/29 17:22:19;;;;;;;14.48;12.07;;;;;;;;;;8373367;28;20053;-91
2022/06/29 17:26:28;;;;;;;18.05;13.95;;;;;;;;;;8383048;28;20044;-91
2022/06/29 17:30:41;;;;;;;15.70;13.13;;;;;;;;;;8380193;28;20477;-87
2022/06/29 17:35:25;;;;;;;15.65;13.50;;;;;;;;;;8391524;28;20056;-89
2022/06/29 17:39:59;;;;;;;16.63;13.93;;;;;;;;;;8383277;28;20041;-89
2022/06/29 17:44:20;;;;;;;16.92;13.93;;;;;;;;;;8369985;28;20102;-88
2022/06/29 17:49:11;;;;;;;16.60;13.18;;;;;;;;;;8373325;28;20052;-88
2022/06/29 17:53:52;;;;;;;16.33;13.88;;;;;;;;;;8370571;28;20049;-90
2022/06/29 17:58:08;;;;;;;16.42;13.88;;;;;;;;;;8370932;28;20051;-89
2022/06/29 18:02:57;;;;;;;18.48;13.98;;;;;;;;;;8383524;28;20052;-89
2022/06/29 18:07:21;;;;;;;16.83;14.63;;;;;;;;;;8385595;28;20044;-90
2022/06/29 18:22:01;;;;;;;17.45;15.23;;;;;;;;;;8366753;28;20094;-88
2022/06/29 18:36:26;;;;;;;18.20;14.05;;;;;;;;;;8377383;28;20488;-91
2022/06/29 18:46:53;;;;;;;16.98;15.18;;;;;;;;;;8370621;28;20049;-89
2022/06/29 18:51:10;;;;;;;17.35;14.65;;;;;;;;;;8376079;28;20037;-89
2022/06/29 18:55:18;;;;;;;18.92;15.00;;;;;;;;;;8385798;28;20093;-89
2022/06/29 18:59:26;;;;;;;48.88;25.35;;;;;;;;;;8382790;28;20079;-89
2022/06/29 19:03:32;;;;;;;18.15;15.63;;;;;;;;;;8387887;28;20109;-88
2022/06/29 19:07:37;;;;;;;22.05;16.58;;;;;;;;;;8390917;28;20040;-89
2022/06/29 19:11:58;;;;;;;17.40;14.88;;;;;;;;;;8387629;28;20559;-88
2022/06/29 19:16:07;;;;;;;17.33;15.50;;;;;;;;;;8386147;28;20044;-89
2022/06/29 19:20:33;;;;;;;19.73;15.98;;;;;;;;;;8382975;28;20051;-89
2022/06/29 19:25:11;;;;;;;16.90;15.10;;;;;;;;;;8389698;28;20037;-88
2022/06/29 19:29:15;;;;;;;18.30;15.80;;;;;;;;;;8381579;28;20040;-90
2022/06/29 19:33:20;;;;;;;20.27;16.33;;;;;;;;;;8390181;28;20412;-89
2022/06/29 19:37:24;;;;;;;18.58;15.95;;;;;;;;;;8379728;28;20137;-89
2022/06/29 19:41:28;;;;;;;22.17;15.68;;;;;;;;;;8378524;28;20492;-89
2022/06/29 19:45:31;;;;;;;19.50;16.95;;;;;;;;;;8369951;28;20045;-89
2022/06/29 19:49:35;;;;;;;20.63;16.77;;;;;;;;;;8387898;28;20049;-88
2022/06/29 19:53:40;;;;;;;19.10;15.82;;;;;;;;;;8378979;28;20483;-89
2022/06/29 19:57:44;;;;;;;18.67;16.75;;;;;;;;;;8384743;28;20511;-90
2022/06/29 20:01:47;;;;;;;18.50;15.77;;;;;;;;;;8373431;28;20052;-90
2022/06/29 20:05:51;;;;;;;18.88;15.75;;;;;;;;;;8370435;28;20056;-89
2022/06/29 20:09:56;;;;;;;19.98;16.02;;;;;;;;;;8368248;28;20445;-89
2022/06/29 20:13:59;;;;;;;21.65;16.50;;;;;;;;;;8382735;28;20128;-89
2022/06/29 20:18:03;;;;;;;19.58;16.27;;;;;;;;;;8372615;28;20166;-90
2022/06/29 20:22:09;;;;;;;19.23;15.80;;;;;;;;;;8380229;28;20057;-89
2022/06/29 20:26:14;;;;;;;18.48;16.38;;;;;;;;;;8375695;28;20076;-89
2022/06/29 20:30:19;;;;;;;19.20;16.52;;;;;;;;;;8367888;28;20561;-89
2022/06/29 20:34:25;;;;;;;20.20;16.67;;;;;;;;;;8372887;28;20102;-90
2022/06/29 20:38:30;;;;;;;19.17;16.60;;;;;;;;;;8370469;28;20052;-89
2022/06/29 20:42:36;;;;;;;19.20;16.52;;;;;;;;;;8373358;28;20136;-89
2022/06/29 20:46:44;;;;;;;21.35;16.20;;;;;;;;;;8379320;28;20052;-90
2022/06/29 20:50:47;;;;;;;21.05;18.13;;;;;;;;;;8377549;28;20045;-90
2022/06/29 20:54:54;;;;;;;20.52;18.35;;;;;;;;;;8372577;28;20056;-89
2022/06/29 20:58:59;;;;;;;20.30;17.85;;;;;;;;;;8360529;28;20441;-90
2022/06/29 21:03:03;;;;;;;20.45;18.08;;;;;;;;;;8367107;28;20432;-90
2022/06/29 21:07:08;;;;;;;22.95;18.00;;;;;;;;;;8379735;28;20063;-90
2022/06/29 21:11:13;;;;;;;19.80;17.70;;;;;;;;;;8375426;28;20068;-90
2022/06/29 21:15:20;;;;;;;21.02;18.45;;;;;;;;;;8373074;28;20052;-90
2022/06/29 21:19:24;;;;;;;17.92;15.23;;;;;;;;;;8372419;28;20044;-90
2022/06/29 21:23:28;;;;;;;22.45;18.38;;;;;;;;;;8367465;28;20469;-90
2022/06/29 21:27:32;;;;;;;20.05;17.92;;;;;;;;;;8372925;28;20122;-90
2022/06/29 21:31:36;;;;;;;20.00;17.75;;;;;;;;;;8378812;28;20048;-90
2022/06/29 21:35:40;;;;;;;21.00;17.75;;;;;;;;;;8373336;28;20523;-90
2022/06/29 21:39:43;;;;;;;22.75;19.27;;;;;;;;;;8381598;28;20037;-90
2022/06/29 21:43:47;;;;;;;23.73;18.55;;;;;;;;;;8381981;28;20099;-90
2022/06/29 21:47:52;;;;;;;20.15;17.73;;;;;;;;;;8371311;28;20049;-90
2022/06/29 21:51:56;;;;;;;21.55;17.88;;;;;;;;;;8370622;28;20041;-91
2022/06/29 21:55:58;;;;;;;22.67;17.42;;;;;;;;;;8366025;28;20048;-89
2022/06/29 22:00:02;;;;;;;21.98;18.10;;;;;;;;;;8370451;28;20049;-90
2022/06/29 22:04:06;;;;;;;23.48;18.05;;;;;;;;;;8373899;28;20044;-92
2022/06/29 22:08:09;;;;;;;19.50;16.90;;;;;;;;;;8372016;28;20049;-90
2022/06/29 22:12:13;;;;;;;19.90;17.63;;;;;;;;;;8371064;28;20045;-89
2022/06/29 22:16:17;;;;;;;19.38;16.60;;;;;;;;;;8366837;28;20040;-91
2022/06/29 22:20:22;;;;;;;19.95;17.33;;;;;;;;;;8364478;28;20127;-90
2022/06/29 22:24:25;;;;;;;20.75;17.20;;;;;;;;;;8379622;28;20416;-89
2022/06/29 22:28:27;;;;;;;20.63;16.25;;;;;;;;;;8373635;28;20048;-90
2022/06/29 22:32:30;;;;;;;19.50;16.20;;;;;;;;;;8380716;28;20056;-90
2022/06/29 22:36:34;;;;;;;20.40;16.63;;;;;;;;;;8372730;28;20107;-89
2022/06/29 22:40:37;;;;;;;16.13;13.77;;;;;;;;;;8372701;28;20106;-89
2022/06/29 22:44:40;;;;;;;19.20;15.30;;;;;;;;;;8368582;28;20044;-89
2022/06/29 22:48:43;;;;;;;17.15;15.35;;;;;;;;;;8366980;28;20463;-90
2022/06/29 22:52:47;;;;;;;20.02;15.07;;;;;;;;;;8370112;28;20527;-91
2022/06/29 22:56:50;;;;;;;19.08;15.63;;;;;;;;;;8375413;28;20183;-90
2022/06/29 23:00:52;;;;;;;17.75;15.80;;;;;;;;;;8382261;28;20553;-89
2022/06/29 23:04:55;;;;;;;15.95;13.98;;;;;;;;;;8368434;28;20041;-89
2022/06/29 23:08:59;;;;;;;17.52;14.27;;;;;;;;;;8371754;28;20049;-90
2022/06/29 23:13:02;;;;;;;17.40;13.65;;;;;;;;;;8373500;28;20041;-91
2022/06/29 23:17:05;;;;;;;19.13;14.65;;;;;;;;;;8389675;28;20377;-90
2022/06/29 23:21:08;;;;;;;20.20;15.25;;;;;;;;;;8385879;28;20044;-90
2022/06/29 23:25:12;;;;;;;17.83;14.57;;;;;;;;;;8384697;28;20044;-91
2022/06/29 23:29:15;;;;;;;17.17;14.48;;;;;;;;;;8379554;28;20045;-91
2022/06/29 23:33:18;;;;;;;19.63;15.00;;;;;;;;;;8391546;28;20075;-90
2022/06/29 23:37:20;;;;;;;21.77;14.75;;;;;;;;;;8386935;28;20048;-90
2022/06/29 23:41:25;;;;;;;17.48;13.68;;;;;;;;;;8381506;28;20047;-89
2022/06/29 23:45:27;;;;;;;18.67;13.90;;;;;;;;;;8375578;28;20052;-90
2022/06/29 23:49:30;;;;;;;19.02;15.00;;;;;;;;;;8380038;28;20415;-91
2022/06/29 23:53:33;;;;;;;20.33;16.10;;;;;;;;;;8389912;28;20510;-92
2022/06/29 23:57:37;;;;;;;19.23;15.68;;;;;;;;;;8389587;28;20091;-92
